메인 페이지
METAR-TAF:

METAR-TAF

공항 :

로건 국제공항

보스턴, 매사추세츠, 미국

위도: 42-21-38N, 경도: 071-00-38W, 고도: 6m

현재 날씨관측

예보는 31분 전, 04:27시(UTC)에 발표되었습니다.
서북서16kt, 순간 최대 풍속 32kt
온도 16°C
습도 82%
기압 1007 hPa
시정: 4.0km
고도 2500ft 상공 구름 많음
고도 3500ft 상공 구름 많음
고도 4300ft 상공 흐림
강한비

METAR: KBOS 160427Z 29016G32KT 2 1/2SM +RA BKN025 BKN035 OVC043 16/13 A2973 RMK AO2 PK WND 30032/0417 WSHFT 0412 VIS 2V5 P0003 T01610133

시각: 00:58 (04:58 UTC)

예보

예보는 1 시간 7분 전, 03:51시(UTC)에 발표되었습니다.
예보 대상 시간: 16일 04시부터 17일 06시까지 (UTC)
남서20kt, 순간 최대 풍속 27kt
시정: 10km
고도 2500ft 상공 구름 많음
고도 3500ft 상공 흐림
16일 0430시부터 (UTC)
북서25kt, 순간 최대 풍속 38kt
시정: 6.4km
고도 2500ft 상공 구름 많음
소나기
16일 0530시부터 (UTC)
서북서18kt, 순간 최대 풍속 35kt
시정: 10km
고도 5000ft 상공 구름 보통
16일 1200시부터 (UTC)
서북서15kt, 순간 최대 풍속 23kt
시정: 10km
맑음
16일 2200시부터 (UTC)
10kt
시정: 10km
고도 25000ft 상공 구름 조금
17일 0300시부터 (UTC)
서남서6kt
시정: 10km
고도 25000ft 상공 구름 조금

TAF: KBOS 160351Z 1604/1706 22020G27KT P6SM BKN025 OVC035 FM160430 31025G38KT 4SM SHRA BKN025 FM160530 29018G35KT P6SM SCT050 FM161200 29015G23KT P6SM SKC FM162200 26010KT P6SM FEW250 FM170300 24006KT P6SM FEW250

4,000개 이상의 공항 관측 자료 및 예보 (METAR 및 TAF 보고).

지도상에서 검색 가능한 기상관측소가 노란 점과 빨간 점으로 표시되어 있습니다.

기상관측소 명을 보려면 표시 위로 마우스를 이동하세요.

날씨 관측과 예보를 보려면 클릭하세요.

지도 변경 : 확대하려면 엑스 표시가 있는 녹색 버튼, 축소하려면 빼기 표시가 있는 녹색 버튼, 다음 페이지의 지도를 보려면 녹색 화살표를 클릭하세요.


METAR-TAF: